createdAt,value
2023-01-23T00:02:36.771Z,101948.28
2023-01-23T00:07:39.545Z,101950.53
2023-01-23T00:12:42.560Z,101945.84
2023-01-23T00:17:46.669Z,101950.72
2023-01-23T00:22:49.479Z,101939.69
2023-01-23T00:27:52.247Z,101950.38
2023-01-23T00:32:57.155Z,101944.97
2023-01-23T00:38:02.300Z,101954.69
2023-01-23T00:43:05.060Z,101950.09
2023-01-23T00:48:09.272Z,101962.50
2023-01-23T00:53:12.888Z,101969.72
2023-01-23T00:58:15.618Z,101967.78
2023-01-23T01:03:20.453Z,101973.28
2023-01-23T01:08:23.379Z,101980.41
2023-01-23T01:13:26.126Z,101984.72
2023-01-23T01:18:30.508Z,101995.25
2023-01-23T01:23:33.245Z,101993.56
2023-01-23T01:28:36.820Z,101995.38
2023-01-23T01:33:41.199Z,101998.91
2023-01-23T01:38:44.006Z,101994.28
2023-01-23T01:43:46.834Z,102002.38
2023-01-23T01:49:05.999Z,102017.47
2023-01-23T01:54:12.229Z,102010.94
2023-01-23T01:59:14.959Z,102020.06
2023-01-23T02:04:19.099Z,102019.41
2023-01-23T02:09:24.099Z,102021.22
2023-01-23T02:14:27.038Z,102036.00
2023-01-23T02:19:39.026Z,102038.28
2023-01-23T02:24:43.949Z,102034.84
2023-01-23T02:29:51.705Z,102053.88
2023-01-23T02:34:55.657Z,102048.28
2023-01-23T02:39:58.672Z,102047.06
2023-01-23T02:45:03.448Z,102060.34
2023-01-23T02:50:07.111Z,102058.19
2023-01-23T02:55:10.212Z,102057.91
2023-01-23T03:00:20.687Z,102063.88
2023-01-23T03:05:23.755Z,102056.22
2023-01-23T03:10:28.911Z,102052.16
2023-01-23T03:15:33.035Z,102056.91
2023-01-23T03:20:39.399Z,102064.44
2023-01-23T03:25:44.183Z,102067.50
2023-01-23T03:30:49.617Z,102075.00
2023-01-23T03:35:52.460Z,102078.81
2023-01-23T03:41:12.928Z,102078.41
2023-01-23T03:46:17.414Z,102080.56
2023-01-23T03:51:20.933Z,102079.22
2023-01-23T03:56:23.839Z,102083.94
2023-01-23T04:01:28.065Z,102092.50
2023-01-23T04:06:31.974Z,102086.59
2023-01-23T04:11:34.774Z,102085.25
2023-01-23T04:16:39.416Z,102081.38
2023-01-23T04:21:42.288Z,102081.84
2023-01-23T04:26:45.717Z,102091.72
2023-01-23T04:31:50.245Z,102090.19
2023-01-23T04:36:53.449Z,102090.50
2023-01-23T04:41:56.345Z,102094.50
2023-01-23T04:47:06.666Z,102092.75
2023-01-23T04:52:10.308Z,102105.59
2023-01-23T04:57:17.055Z,102122.00
2023-01-23T05:02:21.238Z,102127.56
2023-01-23T05:07:24.321Z,102138.53
2023-01-23T05:12:40.602Z,102139.56
2023-01-23T05:17:45.873Z,102144.16
2023-01-23T05:22:53.192Z,102148.91
2023-01-23T05:28:06.711Z,102156.19
2023-01-23T05:33:11.181Z,102159.13
2023-01-23T05:38:14.152Z,102152.22
2023-01-23T05:43:18.986Z,102154.19
2023-01-23T05:48:49.177Z,102158.94
2023-01-23T05:53:52.184Z,102163.59
2023-01-23T05:58:55.096Z,102169.09
2023-01-23T06:04:13.577Z,102171.03
2023-01-23T06:09:29.848Z,102169.44
2023-01-23T06:14:32.987Z,102167.75
2023-01-23T06:19:37.223Z,102173.25
2023-01-23T06:24:40.993Z,102176.97
2023-01-23T06:29:43.823Z,102186.88
2023-01-23T06:34:48.089Z,102191.56
2023-01-23T06:39:51.738Z,102187.16
2023-01-23T06:44:54.594Z,102200.66
2023-01-23T06:50:01.961Z,102206.13
2023-01-23T06:55:07.893Z,102206.28
2023-01-23T07:00:12.526Z,102220.69
2023-01-23T07:05:17.174Z,102224.41
2023-01-23T07:10:23.014Z,102239.69
2023-01-23T07:15:25.919Z,102241.66
2023-01-23T07:20:30.213Z,102251.56
2023-01-23T07:25:35.398Z,102243.63
2023-01-23T07:30:38.220Z,102264.34
2023-01-23T07:35:42.470Z,102268.81
2023-01-23T07:40:45.438Z,102285.91
2023-01-23T07:45:48.247Z,102286.94
2023-01-23T07:50:52.383Z,102300.53
2023-01-23T07:55:55.228Z,102305.91
2023-01-23T08:00:58.058Z,102313.88
2023-01-23T08:06:02.226Z,102313.06
2023-01-23T08:11:05.782Z,102310.34
2023-01-23T08:16:09.722Z,102314.75
2023-01-23T08:21:15.063Z,102315.19
2023-01-23T08:26:18.319Z,102314.31
2023-01-23T08:31:21.177Z,102323.50
2023-01-23T08:36:25.547Z,102324.97
2023-01-23T08:41:28.337Z,102328.94
2023-01-23T08:46:31.088Z,102320.72
2023-01-23T08:51:35.248Z,102336.66
2023-01-23T08:56:37.993Z,102334.78
2023-01-23T09:01:40.760Z,102343.69
2023-01-23T09:06:45.027Z,102344.50
2023-01-23T09:11:47.876Z,102336.47
2023-01-23T09:16:50.658Z,102344.50
2023-01-23T09:21:56.935Z,102342.69
2023-01-23T09:26:59.715Z,102352.53
2023-01-23T09:32:03.075Z,102358.78
2023-01-23T09:37:07.246Z,102350.88
2023-01-23T09:42:11.401Z,102354.41
2023-01-23T09:47:15.813Z,102355.28
2023-01-23T09:52:20.797Z,102348.25
2023-01-23T09:57:24.997Z,102345.75
2023-01-23T10:02:27.855Z,102350.22
2023-01-23T10:07:54.205Z,102342.34
2023-01-23T10:12:59.824Z,102335.16
2023-01-23T10:18:08.342Z,102330.69
2023-01-23T10:23:19.374Z,102321.78
2023-01-23T10:28:27.880Z,102323.50
2023-01-23T10:33:36.996Z,102319.03
2023-01-23T10:38:46.216Z,102314.59
2023-01-23T10:43:50.696Z,102312.88
2023-01-23T10:48:53.951Z,102317.22
2023-01-23T10:54:16.974Z,102320.72
2023-01-23T10:59:36.217Z,102326.97
2023-01-23T11:04:38.956Z,102326.97
2023-01-23T11:09:51.844Z,102316.19
2023-01-23T11:15:12.998Z,102330.44
2023-01-23T11:20:24.510Z,102333.19
2023-01-23T11:25:30.508Z,102332.19
2023-01-23T11:30:39.529Z,102334.78
2023-01-23T11:35:51.223Z,102334.84
2023-01-23T11:40:55.403Z,102335.81
2023-01-23T11:46:20.506Z,102336.81
2023-01-23T11:51:26.144Z,102330.53
2023-01-23T11:56:44.872Z,102323.41
2023-01-23T12:02:03.040Z,102322.50
2023-01-23T12:07:17.609Z,102311.78
2023-01-23T12:12:26.620Z,102310.00
2023-01-23T12:17:33.767Z,102298.34
2023-01-23T12:22:43.167Z,102298.34
2023-01-23T12:27:48.137Z,102309.06
2023-01-23T12:32:56.555Z,102301.06
2023-01-23T12:38:19.308Z,102309.88
2023-01-23T12:43:30.948Z,102309.94
2023-01-23T12:48:36.025Z,102311.75
2023-01-23T12:53:39.366Z,102322.19
2023-01-23T12:58:45.833Z,102327.81
2023-01-23T13:03:56.717Z,102328.03
2023-01-23T13:09:16.661Z,102323.88
2023-01-23T13:14:32.878Z,102318.44
2023-01-23T13:19:59.104Z,102308.13
2023-01-23T13:25:12.571Z,102307.22
2023-01-23T13:30:41.833Z,102313.31
2023-01-23T13:35:55.905Z,102304.63
2023-01-23T13:41:29.831Z,102301.28
2023-01-23T14:24:54.931Z,102307.16
2023-01-23T14:29:58.660Z,102305.41
2023-01-23T14:35:03.023Z,102306.41
2023-01-23T14:40:12.139Z,102308.25
2023-01-23T14:45:15.423Z,102308.38
2023-01-23T14:50:20.678Z,102310.19
2023-01-23T14:55:29.829Z,102308.56
2023-01-23T15:00:35.692Z,102320.06
2023-01-23T15:05:41.611Z,102330.06
2023-01-23T15:10:46.134Z,102324.56
2023-01-23T15:15:52.171Z,102338.81
2023-01-23T15:20:56.695Z,102347.72
2023-01-23T15:26:19.640Z,102354.81
2023-01-23T15:31:28.405Z,102353.00
2023-01-23T15:36:33.068Z,102341.47
2023-01-23T15:41:40.510Z,102338.84
2023-01-23T15:46:43.545Z,102344.16
2023-01-23T15:51:52.703Z,102350.41
2023-01-23T15:57:06.699Z,102352.22
2023-01-23T16:02:29.586Z,102354.88
2023-01-23T16:07:35.339Z,102363.72
2023-01-23T16:12:40.002Z,102356.56
2023-01-23T16:17:42.777Z,102365.41
2023-01-23T16:22:47.331Z,102368.94
2023-01-23T16:27:50.135Z,102359.97
2023-01-23T16:32:52.946Z,102372.44
2023-01-23T16:37:57.073Z,102375.97
2023-01-23T16:43:02.608Z,102384.78
2023-01-23T16:48:07.457Z,102385.44
2023-01-23T16:53:16.179Z,102388.91
2023-01-23T16:58:20.162Z,102392.31
2023-01-23T17:03:23.651Z,102388.50
2023-01-23T17:08:27.886Z,102401.53
2023-01-23T17:13:30.909Z,102403.84
2023-01-23T17:18:34.802Z,102399.91
2023-01-23T17:23:38.990Z,102402.59
2023-01-23T17:28:41.834Z,102404.47
2023-01-23T17:33:44.879Z,102399.09
2023-01-23T17:38:49.309Z,102393.66
2023-01-23T17:43:52.636Z,102398.06
2023-01-23T17:48:55.727Z,102400.66
2023-01-23T17:53:59.925Z,102394.34
2023-01-23T17:59:02.818Z,102400.44
2023-01-23T18:04:12.445Z,102409.09
2023-01-23T18:09:16.648Z,102390.47
2023-01-23T18:14:29.838Z,102400.72
2023-01-23T18:19:33.212Z,102405.16
2023-01-23T18:24:38.423Z,102403.22
2023-01-23T18:29:47.459Z,102398.63
2023-01-23T18:34:52.059Z,102406.38
2023-01-23T18:40:02.418Z,102410.59
2023-01-23T18:45:07.908Z,102412.19
2023-01-23T18:50:17.341Z,102412.25
2023-01-23T18:55:25.698Z,102419.31
2023-01-23T19:00:29.837Z,102419.13
2023-01-23T19:05:33.655Z,102418.25
2023-01-23T19:10:48.147Z,102429.84
2023-01-23T19:15:55.532Z,102421.78
2023-01-23T19:21:01.467Z,102427.81
2023-01-23T19:26:06.425Z,102435.00
2023-01-23T19:31:14.239Z,102430.38
2023-01-23T19:36:17.290Z,102433.78
2023-01-23T19:41:22.690Z,102440.03
2023-01-23T19:46:26.700Z,102433.63
2023-01-23T19:51:30.585Z,102413.41
2023-01-23T19:56:34.809Z,102424.59
2023-01-23T20:01:40.081Z,102423.66
2023-01-23T20:06:45.090Z,102419.94
2023-01-23T20:11:49.285Z,102420.72
2023-01-23T20:16:52.216Z,102425.16
2023-01-23T20:21:55.058Z,102429.53
2023-01-23T20:26:59.132Z,102428.59
2023-01-23T20:32:01.959Z,102432.06
2023-01-23T20:37:04.743Z,102422.34
2023-01-23T20:42:10.662Z,102433.66
2023-01-23T20:47:14.103Z,102430.31
2023-01-23T20:52:34.619Z,102433.81
2023-01-23T20:57:56.320Z,102444.78
2023-01-23T21:02:59.099Z,102446.38
2023-01-23T21:08:01.952Z,102447.16
2023-01-23T21:13:08.063Z,102448.03
2023-01-23T21:18:10.790Z,102455.28
2023-01-23T21:23:13.535Z,102451.81
2023-01-23T21:28:17.779Z,102456.16
2023-01-23T21:33:20.597Z,102457.91
2023-01-23T21:38:23.429Z,102461.47
2023-01-23T21:43:27.625Z,102457.84
2023-01-23T21:48:30.433Z,102457.84
2023-01-23T21:53:33.228Z,102447.91
2023-01-23T21:58:37.447Z,102453.22
2023-01-23T22:03:40.334Z,102449.56
2023-01-23T22:08:43.236Z,102445.16
2023-01-23T22:13:47.522Z,102446.28
2023-01-23T22:18:50.324Z,102440.91
2023-01-23T22:23:53.132Z,102445.50
2023-01-23T22:28:57.344Z,102443.91
2023-01-23T22:34:00.174Z,102444.19
2023-01-23T22:39:02.978Z,102452.09
2023-01-23T22:44:07.236Z,102444.19
2023-01-23T22:49:10.282Z,102439.00
2023-01-23T22:54:13.045Z,102442.00
2023-01-23T22:59:17.177Z,102443.91
2023-01-23T23:04:19.956Z,102439.41
2023-01-23T23:09:22.793Z,102441.31
2023-01-23T23:14:26.919Z,102435.81
2023-01-23T23:19:29.705Z,102436.88
2023-01-23T23:24:32.434Z,102443.19
2023-01-23T23:29:36.817Z,102446.84
2023-01-23T23:34:39.593Z,102449.50
2023-01-23T23:39:42.358Z,102448.72
2023-01-23T23:44:46.481Z,102441.66
2023-01-23T23:49:49.382Z,102448.66
2023-01-23T23:54:52.142Z,102452.19
2023-01-23T23:59:56.254Z,102449.44
